Decoded Metar for KMCB (MCCOMB in MS, USA) (IATA:MCB) | Meteo·Mobile Aviation Weather
aviador You're here:

KMCB Decoded Metar

MCCOMB in MS, USA
Report Time2019-02-16 06:53:00
UTC Time2019-02-16 07:27:08
Flight Rules mvfr MVFR
Wind200° at 06 kt
W.Decomp.*RWY 15: 4.1 kt HW 4.4 kt RCW
W.Rank200° ranks 13
Current wind is below 200° avg. (6.2)
Visibility9999 m
Phenomena:N/A
Clouds:Broken 014 Hf
Overcast 019 Hf
Expected CloudBase > 800 ft AGL from Temp-Dew spread
Ceiling1,400 ft
Temp19°C (ISA +5)
Dew Point17°C (88% RH)
QNH1009 hPa
Density Alt1,365 ft
Elevation407 ft
Report Wrong Elevation
Raw Report
KMCB 160653Z AUTO 20006KT 10SM BKN014 OVC019 19/17 A2981 RMK AO2
SLP089 T01940167=

Extra information for KMCB:More info

Metar Taf Metar & Taf Last 4 Metars F.Rules Stats Wind Profile Meteogram Temp Stats Airport Information Weather charts Add Link Nearby VenuesMetar ALERT Operation Metar Decoded Social comments

AIRNAV info for KMCB